sensor_id;sensor_type;location;lat;lon;timestamp;P1;durP1;ratioP1;P2;durP2;ratioP2
33862;SDS011;20158;51.436;-2.742;2023-02-11T00:02:01;4.32;;;2.38;;
33862;SDS011;20158;51.436;-2.742;2023-02-11T00:04:29;4.28;;;1.90;;
33862;SDS011;20158;51.436;-2.742;2023-02-11T00:06:56;3.58;;;2.00;;
33862;SDS011;20158;51.436;-2.742;2023-02-11T00:09:22;4.18;;;2.13;;
33862;SDS011;20158;51.436;-2.742;2023-02-11T00:11:47;5.53;;;2.30;;
33862;SDS011;20158;51.436;-2.742;2023-02-11T00:14:14;4.30;;;3.08;;
33862;SDS011;20158;51.436;-2.742;2023-02-11T00:16:40;3.72;;;1.48;;
33862;SDS011;20158;51.436;-2.742;2023-02-11T00:19:06;4.75;;;1.92;;
33862;SDS011;20158;51.436;-2.742;2023-02-11T00:21:32;5.65;;;2.60;;
33862;SDS011;20158;51.436;-2.742;2023-02-11T00:23:59;6.20;;;1.65;;
33862;SDS011;20158;51.436;-2.742;2023-02-11T00:26:28;4.40;;;1.80;;
33862;SDS011;20158;51.436;-2.742;2023-02-11T00:28:56;3.60;;;1.90;;
33862;SDS011;20158;51.436;-2.742;2023-02-11T00:31:22;5.13;;;2.20;;
33862;SDS011;20158;51.436;-2.742;2023-02-11T00:33:49;3.60;;;1.80;;
33862;SDS011;20158;51.436;-2.742;2023-02-11T00:36:17;4.80;;;2.08;;
33862;SDS011;20158;51.436;-2.742;2023-02-11T00:38:46;5.05;;;1.80;;
33862;SDS011;20158;51.436;-2.742;2023-02-11T00:41:13;3.60;;;1.70;;
33862;SDS011;20158;51.436;-2.742;2023-02-11T00:43:39;4.70;;;1.75;;
33862;SDS011;20158;51.436;-2.742;2023-02-11T00:46:05;2.88;;;1.80;;
33862;SDS011;20158;51.436;-2.742;2023-02-11T00:48:32;4.18;;;1.75;;
33862;SDS011;20158;51.436;-2.742;2023-02-11T00:50:59;6.82;;;2.03;;
33862;SDS011;20158;51.436;-2.742;2023-02-11T00:53:25;6.57;;;1.90;;
33862;SDS011;20158;51.436;-2.742;2023-02-11T00:55:51;3.58;;;1.70;;
33862;SDS011;20158;51.436;-2.742;2023-02-11T00:58:17;6.15;;;2.10;;
33862;SDS011;20158;51.436;-2.742;2023-02-11T01:00:43;3.33;;;1.55;;
33862;SDS011;20158;51.436;-2.742;2023-02-11T01:03:11;5.00;;;1.92;;
33862;SDS011;20158;51.436;-2.742;2023-02-11T01:05:37;4.53;;;1.85;;
33862;SDS011;20158;51.436;-2.742;2023-02-11T01:08:03;5.25;;;1.50;;
33862;SDS011;20158;51.436;-2.742;2023-02-11T01:10:29;3.67;;;1.77;;
33862;SDS011;20158;51.436;-2.742;2023-02-11T01:12:55;3.70;;;1.45;;
33862;SDS011;20158;51.436;-2.742;2023-02-11T01:15:23;8.13;;;2.15;;
33862;SDS011;20158;51.436;-2.742;2023-02-11T01:17:49;4.22;;;1.67;;
33862;SDS011;20158;51.436;-2.742;2023-02-11T01:20:18;6.47;;;1.30;;
33862;SDS011;20158;51.436;-2.742;2023-02-11T01:22:47;3.53;;;1.55;;
33862;SDS011;20158;51.436;-2.742;2023-02-11T01:25:14;6.38;;;1.55;;
33862;SDS011;20158;51.436;-2.742;2023-02-11T01:27:40;4.03;;;1.50;;
33862;SDS011;20158;51.436;-2.742;2023-02-11T01:30:08;4.65;;;1.33;;
33862;SDS011;20158;51.436;-2.742;2023-02-11T01:32:36;4.88;;;1.50;;
33862;SDS011;20158;51.436;-2.742;2023-02-11T01:35:02;5.00;;;1.25;;
33862;SDS011;20158;51.436;-2.742;2023-02-11T01:37:28;5.78;;;1.77;;
33862;SDS011;20158;51.436;-2.742;2023-02-11T01:39:56;6.13;;;2.22;;
33862;SDS011;20158;51.436;-2.742;2023-02-11T01:42:22;5.65;;;2.08;;
33862;SDS011;20158;51.436;-2.742;2023-02-11T01:44:50;5.30;;;1.73;;
33862;SDS011;20158;51.436;-2.742;2023-02-11T01:47:19;4.30;;;1.38;;
33862;SDS011;20158;51.436;-2.742;2023-02-11T01:49:48;3.92;;;1.52;;
33862;SDS011;20158;51.436;-2.742;2023-02-11T01:52:32;6.57;;;1.60;;
33862;SDS011;20158;51.436;-2.742;2023-02-11T01:55:04;4.68;;;1.58;;
33862;SDS011;20158;51.436;-2.742;2023-02-11T01:57:56;2.75;;;0.90;;
33862;SDS011;20158;51.436;-2.742;2023-02-11T02:00:32;6.17;;;1.87;;
33862;SDS011;20158;51.436;-2.742;2023-02-11T02:03:09;4.45;;;1.30;;
33862;SDS011;20158;51.436;-2.742;2023-02-11T02:05:41;4.07;;;1.77;;
33862;SDS011;20158;51.436;-2.742;2023-02-11T02:08:20;4.13;;;1.40;;
33862;SDS011;20158;51.436;-2.742;2023-02-11T02:10:48;4.88;;;1.83;;
33862;SDS011;20158;51.436;-2.742;2023-02-11T02:13:18;2.92;;;1.50;;
33862;SDS011;20158;51.436;-2.742;2023-02-11T02:15:48;5.32;;;1.38;;
33862;SDS011;20158;51.436;-2.742;2023-02-11T02:37:46;4.45;;;1.38;;
33862;SDS011;20158;51.436;-2.742;2023-02-11T02:40:33;3.20;;;1.60;;
33862;SDS011;20158;51.436;-2.742;2023-02-11T02:43:04;3.67;;;1.45;;
33862;SDS011;20158;51.436;-2.742;2023-02-11T02:45:33;3.90;;;1.35;;
33862;SDS011;20158;51.436;-2.742;2023-02-11T02:47:59;6.85;;;1.63;;
33862;SDS011;20158;51.436;-2.742;2023-02-11T02:50:29;5.45;;;2.00;;
33862;SDS011;20158;51.436;-2.742;2023-02-11T02:53:16;4.90;;;1.20;;
33862;SDS011;20158;51.436;-2.742;2023-02-11T02:55:59;5.07;;;1.38;;
33862;SDS011;20158;51.436;-2.742;2023-02-11T03:09:39;3.67;;;1.50;;
33862;SDS011;20158;51.436;-2.742;2023-02-11T03:12:14;8.07;;;1.60;;
33862;SDS011;20158;51.436;-2.742;2023-02-11T03:14:41;5.30;;;1.70;;
33862;SDS011;20158;51.436;-2.742;2023-02-11T03:17:07;5.00;;;1.60;;
33862;SDS011;20158;51.436;-2.742;2023-02-11T03:19:42;7.07;;;1.73;;
33862;SDS011;20158;51.436;-2.742;2023-02-11T03:22:11;6.47;;;1.88;;
33862;SDS011;20158;51.436;-2.742;2023-02-11T03:24:46;3.33;;;1.52;;
33862;SDS011;20158;51.436;-2.742;2023-02-11T03:32:26;4.68;;;1.60;;
33862;SDS011;20158;51.436;-2.742;2023-02-11T03:35:03;5.88;;;3.05;;
33862;SDS011;20158;51.436;-2.742;2023-02-11T03:37:56;5.35;;;1.63;;
33862;SDS011;20158;51.436;-2.742;2023-02-11T03:40:30;6.18;;;1.45;;
33862;SDS011;20158;51.436;-2.742;2023-02-11T03:42:59;8.43;;;1.67;;
33862;SDS011;20158;51.436;-2.742;2023-02-11T03:45:31;8.43;;;1.87;;
33862;SDS011;20158;51.436;-2.742;2023-02-11T03:48:00;5.25;;;1.42;;
33862;SDS011;20158;51.436;-2.742;2023-02-11T03:50:38;7.22;;;2.80;;
33862;SDS011;20158;51.436;-2.742;2023-02-11T03:53:06;3.38;;;1.58;;
33862;SDS011;20158;51.436;-2.742;2023-02-11T03:55:34;6.60;;;2.13;;
33862;SDS011;20158;51.436;-2.742;2023-02-11T03:58:03;6.60;;;1.98;;
33862;SDS011;20158;51.436;-2.742;2023-02-11T04:00:30;4.03;;;1.90;;
33862;SDS011;20158;51.436;-2.742;2023-02-11T04:02:57;4.93;;;1.88;;
33862;SDS011;20158;51.436;-2.742;2023-02-11T04:05:23;6.20;;;2.13;;
33862;SDS011;20158;51.436;-2.742;2023-02-11T04:07:49;5.32;;;2.08;;
33862;SDS011;20158;51.436;-2.742;2023-02-11T04:10:15;7.80;;;2.72;;
33862;SDS011;20158;51.436;-2.742;2023-02-11T04:12:41;7.10;;;2.50;;
33862;SDS011;20158;51.436;-2.742;2023-02-11T04:15:07;6.57;;;2.22;;
33862;SDS011;20158;51.436;-2.742;2023-02-11T04:17:33;4.45;;;2.05;;
33862;SDS011;20158;51.436;-2.742;2023-02-11T04:19:59;7.05;;;2.35;;
33862;SDS011;20158;51.436;-2.742;2023-02-11T04:22:25;6.03;;;1.92;;
33862;SDS011;20158;51.436;-2.742;2023-02-11T04:24:51;7.75;;;2.78;;
33862;SDS011;20158;51.436;-2.742;2023-02-11T04:27:17;5.75;;;2.15;;
33862;SDS011;20158;51.436;-2.742;2023-02-11T04:29:43;7.18;;;2.55;;
33862;SDS011;20158;51.436;-2.742;2023-02-11T04:32:09;11.93;;;3.22;;
33862;SDS011;20158;51.436;-2.742;2023-02-11T04:34:36;7.70;;;2.35;;
33862;SDS011;20158;51.436;-2.742;2023-02-11T04:37:03;5.68;;;2.20;;
33862;SDS011;20158;51.436;-2.742;2023-02-11T04:39:29;4.45;;;2.35;;
33862;SDS011;20158;51.436;-2.742;2023-02-11T04:41:55;7.05;;;2.97;;
33862;SDS011;20158;51.436;-2.742;2023-02-11T04:44:21;2.67;;;2.17;;
33862;SDS011;20158;51.436;-2.742;2023-02-11T04:46:47;4.03;;;2.47;;
33862;SDS011;20158;51.436;-2.742;2023-02-11T04:49:14;10.25;;;3.05;;
33862;SDS011;20158;51.436;-2.742;2023-02-11T04:51:40;10.00;;;3.33;;
33862;SDS011;20158;51.436;-2.742;2023-02-11T04:54:07;7.85;;;3.80;;
33862;SDS011;20158;51.436;-2.742;2023-02-11T04:56:33;8.52;;;3.15;;
33862;SDS011;20158;51.436;-2.742;2023-02-11T04:58:59;5.75;;;2.72;;
33862;SDS011;20158;51.436;-2.742;2023-02-11T05:01:25;7.35;;;3.22;;
33862;SDS011;20158;51.436;-2.742;2023-02-11T05:03:51;5.07;;;3.10;;
33862;SDS011;20158;51.436;-2.742;2023-02-11T05:06:17;6.32;;;3.15;;
33862;SDS011;20158;51.436;-2.742;2023-02-11T05:08:43;5.88;;;2.30;;
33862;SDS011;20158;51.436;-2.742;2023-02-11T05:11:13;5.95;;;3.45;;
33862;SDS011;20158;51.436;-2.742;2023-02-11T05:13:44;7.53;;;2.80;;
33862;SDS011;20158;51.436;-2.742;2023-02-11T05:16:11;7.18;;;3.03;;
33862;SDS011;20158;51.436;-2.742;2023-02-11T05:18:38;8.13;;;3.38;;
33862;SDS011;20158;51.436;-2.742;2023-02-11T05:21:06;8.00;;;3.40;;
33862;SDS011;20158;51.436;-2.742;2023-02-11T05:23:33;6.78;;;2.40;;
33862;SDS011;20158;51.436;-2.742;2023-02-11T05:26:01;5.72;;;2.75;;
33862;SDS011;20158;51.436;-2.742;2023-02-11T05:28:27;4.95;;;2.78;;
33862;SDS011;20158;51.436;-2.742;2023-02-11T05:30:54;7.15;;;2.38;;
33862;SDS011;20158;51.436;-2.742;2023-02-11T05:33:20;5.70;;;2.50;;
33862;SDS011;20158;51.436;-2.742;2023-02-11T05:35:46;7.93;;;2.58;;
33862;SDS011;20158;51.436;-2.742;2023-02-11T05:38:13;7.82;;;3.17;;
33862;SDS011;20158;51.436;-2.742;2023-02-11T05:40:39;4.75;;;3.03;;
33862;SDS011;20158;51.436;-2.742;2023-02-11T05:43:05;5.07;;;2.47;;
33862;SDS011;20158;51.436;-2.742;2023-02-11T05:45:31;8.73;;;2.50;;
33862;SDS011;20158;51.436;-2.742;2023-02-11T05:47:57;6.97;;;2.88;;
33862;SDS011;20158;51.436;-2.742;2023-02-11T05:50:23;7.78;;;3.20;;
33862;SDS011;20158;51.436;-2.742;2023-02-11T05:52:51;9.50;;;3.13;;
33862;SDS011;20158;51.436;-2.742;2023-02-11T05:55:17;6.25;;;2.20;;
33862;SDS011;20158;51.436;-2.742;2023-02-11T05:57:43;5.72;;;2.22;;
33862;SDS011;20158;51.436;-2.742;2023-02-11T06:00:09;4.53;;;2.22;;
33862;SDS011;20158;51.436;-2.742;2023-02-11T06:02:38;5.22;;;2.38;;
33862;SDS011;20158;51.436;-2.742;2023-02-11T06:05:04;10.60;;;2.58;;
33862;SDS011;20158;51.436;-2.742;2023-02-11T06:07:31;5.90;;;2.45;;
33862;SDS011;20158;51.436;-2.742;2023-02-11T06:09:57;5.47;;;2.50;;
33862;SDS011;20158;51.436;-2.742;2023-02-11T06:12:23;5.85;;;2.40;;
33862;SDS011;20158;51.436;-2.742;2023-02-11T06:14:49;5.25;;;2.55;;
33862;SDS011;20158;51.436;-2.742;2023-02-11T06:17:15;9.32;;;2.60;;
33862;SDS011;20158;51.436;-2.742;2023-02-11T06:19:41;7.07;;;2.38;;
33862;SDS011;20158;51.436;-2.742;2023-02-11T06:22:07;8.48;;;2.50;;
33862;SDS011;20158;51.436;-2.742;2023-02-11T06:24:33;7.03;;;2.75;;
33862;SDS011;20158;51.436;-2.742;2023-02-11T06:26:59;6.93;;;2.90;;
33862;SDS011;20158;51.436;-2.742;2023-02-11T06:29:25;6.88;;;3.63;;
33862;SDS011;20158;51.436;-2.742;2023-02-11T06:31:51;5.90;;;2.45;;
33862;SDS011;20158;51.436;-2.742;2023-02-11T06:34:17;9.15;;;3.15;;
33862;SDS011;20158;51.436;-2.742;2023-02-11T06:36:42;6.85;;;2.65;;
33862;SDS011;20158;51.436;-2.742;2023-02-11T06:39:09;10.38;;;2.53;;
33862;SDS011;20158;51.436;-2.742;2023-02-11T06:41:37;7.00;;;3.28;;
33862;SDS011;20158;51.436;-2.742;2023-02-11T06:44:03;7.43;;;3.20;;
33862;SDS011;20158;51.436;-2.742;2023-02-11T06:46:29;5.72;;;3.08;;
33862;SDS011;20158;51.436;-2.742;2023-02-11T06:48:56;5.88;;;3.03;;
33862;SDS011;20158;51.436;-2.742;2023-02-11T06:51:22;5.53;;;2.95;;
33862;SDS011;20158;51.436;-2.742;2023-02-11T06:53:48;9.10;;;3.67;;
33862;SDS011;20158;51.436;-2.742;2023-02-11T06:56:18;6.13;;;3.25;;
33862;SDS011;20158;51.436;-2.742;2023-02-11T06:58:46;9.15;;;3.78;;
33862;SDS011;20158;51.436;-2.742;2023-02-11T07:01:13;10.02;;;3.47;;
33862;SDS011;20158;51.436;-2.742;2023-02-11T07:03:41;9.52;;;4.00;;
33862;SDS011;20158;51.436;-2.742;2023-02-11T07:06:10;5.65;;;3.25;;
33862;SDS011;20158;51.436;-2.742;2023-02-11T07:08:38;6.95;;;3.50;;
33862;SDS011;20158;51.436;-2.742;2023-02-11T07:11:14;6.82;;;4.35;;
33862;SDS011;20158;51.436;-2.742;2023-02-11T07:13:45;5.22;;;2.50;;
33862;SDS011;20158;51.436;-2.742;2023-02-11T07:16:13;6.68;;;3.83;;
33862;SDS011;20158;51.436;-2.742;2023-02-11T07:18:40;5.20;;;3.33;;
33862;SDS011;20158;51.436;-2.742;2023-02-11T07:21:07;11.32;;;4.68;;
33862;SDS011;20158;51.436;-2.742;2023-02-11T07:23:36;8.45;;;4.10;;
33862;SDS011;20158;51.436;-2.742;2023-02-11T07:26:06;7.75;;;4.03;;
33862;SDS011;20158;51.436;-2.742;2023-02-11T07:28:34;9.30;;;4.22;;
33862;SDS011;20158;51.436;-2.742;2023-02-11T07:31:08;12.35;;;4.47;;
33862;SDS011;20158;51.436;-2.742;2023-02-11T07:33:38;7.57;;;3.95;;
33862;SDS011;20158;51.436;-2.742;2023-02-11T07:36:05;11.88;;;4.22;;
33862;SDS011;20158;51.436;-2.742;2023-02-11T07:38:33;8.73;;;4.25;;
33862;SDS011;20158;51.436;-2.742;2023-02-11T07:41:00;8.70;;;4.45;;
33862;SDS011;20158;51.436;-2.742;2023-02-11T07:43:26;7.43;;;5.10;;
33862;SDS011;20158;51.436;-2.742;2023-02-11T07:45:52;10.45;;;4.50;;
33862;SDS011;20158;51.436;-2.742;2023-02-11T07:48:19;9.20;;;4.65;;
33862;SDS011;20158;51.436;-2.742;2023-02-11T07:50:45;12.40;;;4.80;;
33862;SDS011;20158;51.436;-2.742;2023-02-11T07:53:11;8.30;;;4.47;;
33862;SDS011;20158;51.436;-2.742;2023-02-11T07:55:37;10.82;;;5.78;;
33862;SDS011;20158;51.436;-2.742;2023-02-11T07:58:02;10.20;;;5.18;;
33862;SDS011;20158;51.436;-2.742;2023-02-11T08:00:28;8.13;;;4.97;;
33862;SDS011;20158;51.436;-2.742;2023-02-11T08:02:57;14.00;;;4.80;;
33862;SDS011;20158;51.436;-2.742;2023-02-11T08:05:23;10.45;;;4.88;;
33862;SDS011;20158;51.436;-2.742;2023-02-11T08:07:50;9.20;;;5.10;;
33862;SDS011;20158;51.436;-2.742;2023-02-11T08:10:17;11.50;;;6.15;;
33862;SDS011;20158;51.436;-2.742;2023-02-11T08:12:43;9.15;;;4.85;;
33862;SDS011;20158;51.436;-2.742;2023-02-11T08:15:09;6.70;;;4.80;;
33862;SDS011;20158;51.436;-2.742;2023-02-11T08:17:35;8.30;;;5.00;;
33862;SDS011;20158;51.436;-2.742;2023-02-11T08:20:02;10.85;;;5.03;;
33862;SDS011;20158;51.436;-2.742;2023-02-11T08:22:33;11.40;;;6.15;;
33862;SDS011;20158;51.436;-2.742;2023-02-11T08:24:59;10.95;;;5.78;;
33862;SDS011;20158;51.436;-2.742;2023-02-11T08:27:26;10.68;;;5.32;;
33862;SDS011;20158;51.436;-2.742;2023-02-11T08:29:52;7.18;;;4.43;;
33862;SDS011;20158;51.436;-2.742;2023-02-11T08:32:18;8.95;;;4.65;;
33862;SDS011;20158;51.436;-2.742;2023-02-11T08:34:45;11.77;;;5.75;;
33862;SDS011;20158;51.436;-2.742;2023-02-11T08:37:11;6.95;;;3.70;;
33862;SDS011;20158;51.436;-2.742;2023-02-11T08:39:37;8.57;;;3.70;;
33862;SDS011;20158;51.436;-2.742;2023-02-11T08:42:05;6.53;;;4.25;;
33862;SDS011;20158;51.436;-2.742;2023-02-11T08:44:31;5.88;;;3.22;;
33862;SDS011;20158;51.436;-2.742;2023-02-11T08:46:57;7.90;;;3.67;;
33862;SDS011;20158;51.436;-2.742;2023-02-11T08:49:23;7.70;;;4.68;;
33862;SDS011;20158;51.436;-2.742;2023-02-11T08:51:49;11.52;;;4.32;;
33862;SDS011;20158;51.436;-2.742;2023-02-11T08:54:15;11.30;;;4.68;;
33862;SDS011;20158;51.436;-2.742;2023-02-11T08:56:41;7.82;;;4.38;;
33862;SDS011;20158;51.436;-2.742;2023-02-11T08:59:10;12.07;;;5.32;;
33862;SDS011;20158;51.436;-2.742;2023-02-11T09:01:38;12.73;;;5.75;;
33862;SDS011;20158;51.436;-2.742;2023-02-11T09:04:04;9.35;;;5.30;;
33862;SDS011;20158;51.436;-2.742;2023-02-11T09:06:30;13.15;;;6.30;;
33862;SDS011;20158;51.436;-2.742;2023-02-11T09:08:56;8.65;;;4.95;;
33862;SDS011;20158;51.436;-2.742;2023-02-11T09:11:27;8.98;;;5.07;;
33862;SDS011;20158;51.436;-2.742;2023-02-11T09:13:55;12.43;;;4.80;;
33862;SDS011;20158;51.436;-2.742;2023-02-11T09:16:22;12.02;;;5.50;;
33862;SDS011;20158;51.436;-2.742;2023-02-11T09:18:52;5.22;;;4.07;;
33862;SDS011;20158;51.436;-2.742;2023-02-11T09:21:20;10.02;;;5.60;;
33862;SDS011;20158;51.436;-2.742;2023-02-11T09:23:46;9.15;;;5.10;;
33862;SDS011;20158;51.436;-2.742;2023-02-11T09:26:14;7.30;;;3.42;;
33862;SDS011;20158;51.436;-2.742;2023-02-11T09:28:42;10.20;;;4.50;;
33862;SDS011;20158;51.436;-2.742;2023-02-11T09:31:09;8.20;;;4.43;;
33862;SDS011;20158;51.436;-2.742;2023-02-11T09:33:37;9.85;;;5.50;;
33862;SDS011;20158;51.436;-2.742;2023-02-11T09:36:03;9.07;;;4.65;;
33862;SDS011;20158;51.436;-2.742;2023-02-11T09:38:30;6.63;;;5.43;;
33862;SDS011;20158;51.436;-2.742;2023-02-11T09:40:56;8.45;;;5.32;;
33862;SDS011;20158;51.436;-2.742;2023-02-11T09:43:27;6.82;;;4.40;;
33862;SDS011;20158;51.436;-2.742;2023-02-11T09:46:00;8.93;;;5.32;;
33862;SDS011;20158;51.436;-2.742;2023-02-11T09:48:26;12.15;;;6.47;;
33862;SDS011;20158;51.436;-2.742;2023-02-11T09:51:04;12.10;;;5.85;;
33862;SDS011;20158;51.436;-2.742;2023-02-11T09:53:36;9.88;;;6.03;;
33862;SDS011;20158;51.436;-2.742;2023-02-11T09:56:10;12.48;;;6.22;;
33862;SDS011;20158;51.436;-2.742;2023-02-11T09:58:39;10.88;;;6.95;;
33862;SDS011;20158;51.436;-2.742;2023-02-11T10:04:01;9.82;;;6.97;;
33862;SDS011;20158;51.436;-2.742;2023-02-11T10:22:49;11.02;;;7.78;;
33862;SDS011;20158;51.436;-2.742;2023-02-11T10:25:33;17.52;;;8.45;;
33862;SDS011;20158;51.436;-2.742;2023-02-11T10:28:09;13.63;;;8.48;;
33862;SDS011;20158;51.436;-2.742;2023-02-11T10:30:42;11.75;;;7.82;;
33862;SDS011;20158;51.436;-2.742;2023-02-11T10:35:42;14.15;;;7.35;;
33862;SDS011;20158;51.436;-2.742;2023-02-11T10:38:10;9.70;;;7.63;;
33862;SDS011;20158;51.436;-2.742;2023-02-11T10:40:36;7.72;;;5.15;;
33862;SDS011;20158;51.436;-2.742;2023-02-11T10:43:06;9.43;;;5.78;;
33862;SDS011;20158;51.436;-2.742;2023-02-11T10:45:48;8.20;;;5.45;;
33862;SDS011;20158;51.436;-2.742;2023-02-11T10:53:43;7.88;;;6.03;;
33862;SDS011;20158;51.436;-2.742;2023-02-11T10:56:11;9.90;;;6.00;;
33862;SDS011;20158;51.436;-2.742;2023-02-11T10:58:59;9.88;;;5.90;;
33862;SDS011;20158;51.436;-2.742;2023-02-11T11:01:50;9.77;;;6.38;;
33862;SDS011;20158;51.436;-2.742;2023-02-11T11:07:19;10.40;;;6.65;;
33862;SDS011;20158;51.436;-2.742;2023-02-11T11:17:35;9.88;;;5.60;;
33862;SDS011;20158;51.436;-2.742;2023-02-11T11:22:47;8.88;;;5.72;;
33862;SDS011;20158;51.436;-2.742;2023-02-11T11:25:22;10.10;;;6.38;;
33862;SDS011;20158;51.436;-2.742;2023-02-11T11:27:52;7.75;;;5.68;;
33862;SDS011;20158;51.436;-2.742;2023-02-11T11:30:21;7.63;;;6.53;;
33862;SDS011;20158;51.436;-2.742;2023-02-11T11:32:51;9.90;;;7.47;;
33862;SDS011;20158;51.436;-2.742;2023-02-11T11:35:22;10.98;;;7.55;;
33862;SDS011;20158;51.436;-2.742;2023-02-11T11:37:55;7.35;;;5.15;;
33862;SDS011;20158;51.436;-2.742;2023-02-11T11:40:25;5.70;;;4.43;;
33862;SDS011;20158;51.436;-2.742;2023-02-11T11:43:14;5.82;;;4.80;;
33862;SDS011;20158;51.436;-2.742;2023-02-11T11:45:57;7.07;;;4.97;;
33862;SDS011;20158;51.436;-2.742;2023-02-11T11:48:27;8.02;;;5.00;;
33862;SDS011;20158;51.436;-2.742;2023-02-11T11:51:06;7.20;;;5.10;;
33862;SDS011;20158;51.436;-2.742;2023-02-11T11:53:47;8.00;;;5.10;;
33862;SDS011;20158;51.436;-2.742;2023-02-11T11:56:25;7.55;;;5.07;;
33862;SDS011;20158;51.436;-2.742;2023-02-11T11:58:57;8.20;;;4.85;;
33862;SDS011;20158;51.436;-2.742;2023-02-11T12:07:22;5.68;;;4.93;;
33862;SDS011;20158;51.436;-2.742;2023-02-11T12:13:13;13.38;;;6.22;;
33862;SDS011;20158;51.436;-2.742;2023-02-11T12:18:10;9.00;;;4.60;;
33862;SDS011;20158;51.436;-2.742;2023-02-11T12:21:04;8.13;;;4.35;;
33862;SDS011;20158;51.436;-2.742;2023-02-11T12:23:57;10.25;;;4.93;;
33862;SDS011;20158;51.436;-2.742;2023-02-11T12:32:09;8.40;;;5.75;;
33862;SDS011;20158;51.436;-2.742;2023-02-11T12:40:33;8.23;;;6.18;;
33862;SDS011;20158;51.436;-2.742;2023-02-11T12:43:24;14.55;;;7.60;;
33862;SDS011;20158;51.436;-2.742;2023-02-11T12:46:31;9.70;;;6.18;;
33862;SDS011;20158;51.436;-2.742;2023-02-11T12:54:41;12.55;;;6.32;;
33862;SDS011;20158;51.436;-2.742;2023-02-11T12:57:20;9.52;;;6.13;;
33862;SDS011;20158;51.436;-2.742;2023-02-11T13:05:04;10.13;;;5.38;;
33862;SDS011;20158;51.436;-2.742;2023-02-11T13:07:52;8.20;;;5.55;;
33862;SDS011;20158;51.436;-2.742;2023-02-11T13:10:33;10.98;;;6.20;;
33862;SDS011;20158;51.436;-2.742;2023-02-11T13:13:04;8.75;;;5.03;;
33862;SDS011;20158;51.436;-2.742;2023-02-11T13:15:49;7.53;;;4.90;;
33862;SDS011;20158;51.436;-2.742;2023-02-11T13:21:30;7.43;;;4.75;;
33862;SDS011;20158;51.436;-2.742;2023-02-11T13:32:12;6.85;;;4.20;;
33862;SDS011;20158;51.436;-2.742;2023-02-11T13:37:53;9.75;;;4.60;;
33862;SDS011;20158;51.436;-2.742;2023-02-11T13:40:02;7.63;;;4.43;;
33862;SDS011;20158;51.436;-2.742;2023-02-11T13:42:29;7.10;;;3.97;;
33862;SDS011;20158;51.436;-2.742;2023-02-11T13:44:57;7.15;;;4.10;;
33862;SDS011;20158;51.436;-2.742;2023-02-11T13:47:31;5.32;;;3.97;;
33862;SDS011;20158;51.436;-2.742;2023-02-11T13:49:59;5.65;;;3.80;;
33862;SDS011;20158;51.436;-2.742;2023-02-11T13:52:31;5.07;;;3.60;;
33862;SDS011;20158;51.436;-2.742;2023-02-11T14:14:24;3.47;;;2.22;;
33862;SDS011;20158;51.436;-2.742;2023-02-11T14:19:31;2.33;;;1.63;;
33862;SDS011;20158;51.436;-2.742;2023-02-11T14:24:56;2.00;;;1.63;;
33862;SDS011;20158;51.436;-2.742;2023-02-11T14:35:42;1.80;;;1.17;;
33862;SDS011;20158;51.436;-2.742;2023-02-11T14:43:50;2.05;;;1.52;;
33862;SDS011;20158;51.436;-2.742;2023-02-11T14:46:20;3.53;;;1.63;;
33862;SDS011;20158;51.436;-2.742;2023-02-11T14:48:49;2.75;;;1.63;;
33862;SDS011;20158;51.436;-2.742;2023-02-11T14:51:24;4.28;;;2.17;;
33862;SDS011;20158;51.436;-2.742;2023-02-11T14:54:13;6.05;;;3.75;;
33862;SDS011;20158;51.436;-2.742;2023-02-11T14:56:43;3.25;;;2.58;;
33862;SDS011;20158;51.436;-2.742;2023-02-11T14:59:12;3.38;;;2.00;;
33862;SDS011;20158;51.436;-2.742;2023-02-11T15:01:45;4.65;;;2.40;;
33862;SDS011;20158;51.436;-2.742;2023-02-11T15:04:23;6.22;;;2.60;;
33862;SDS011;20158;51.436;-2.742;2023-02-11T15:06:50;3.53;;;2.50;;
33862;SDS011;20158;51.436;-2.742;2023-02-11T15:11:52;5.65;;;3.63;;
33862;SDS011;20158;51.436;-2.742;2023-02-11T15:14:26;4.00;;;2.97;;
33862;SDS011;20158;51.436;-2.742;2023-02-11T15:16:57;5.07;;;3.80;;
33862;SDS011;20158;51.436;-2.742;2023-02-11T15:19:30;5.32;;;3.80;;
33862;SDS011;20158;51.436;-2.742;2023-02-11T15:22:00;5.65;;;4.10;;
33862;SDS011;20158;51.436;-2.742;2023-02-11T15:24:33;6.63;;;4.13;;
33862;SDS011;20158;51.436;-2.742;2023-02-11T15:27:00;5.97;;;4.28;;
33862;SDS011;20158;51.436;-2.742;2023-02-11T15:29:27;8.40;;;5.07;;
33862;SDS011;20158;51.436;-2.742;2023-02-11T15:34:34;7.00;;;5.30;;
33862;SDS011;20158;51.436;-2.742;2023-02-11T15:37:01;9.13;;;6.05;;
33862;SDS011;20158;51.436;-2.742;2023-02-11T15:39:38;11.02;;;9.27;;
33862;SDS011;20158;51.436;-2.742;2023-02-11T15:42:18;13.70;;;10.48;;
33862;SDS011;20158;51.436;-2.742;2023-02-11T15:44:48;12.53;;;11.13;;
33862;SDS011;20158;51.436;-2.742;2023-02-11T15:47:33;11.95;;;9.00;;
33862;SDS011;20158;51.436;-2.742;2023-02-11T15:49:59;10.77;;;8.23;;
33862;SDS011;20158;51.436;-2.742;2023-02-11T15:52:26;7.97;;;6.63;;
33862;SDS011;20158;51.436;-2.742;2023-02-11T15:54:53;10.73;;;6.20;;
33862;SDS011;20158;51.436;-2.742;2023-02-11T15:57:23;7.13;;;5.45;;
33862;SDS011;20158;51.436;-2.742;2023-02-11T15:59:50;11.75;;;6.57;;
33862;SDS011;20158;51.436;-2.742;2023-02-11T16:02:26;8.50;;;6.55;;
33862;SDS011;20158;51.436;-2.742;2023-02-11T16:05:00;9.45;;;6.80;;
33862;SDS011;20158;51.436;-2.742;2023-02-11T16:07:39;10.00;;;7.78;;
33862;SDS011;20158;51.436;-2.742;2023-02-11T16:10:17;7.55;;;6.50;;
33862;SDS011;20158;51.436;-2.742;2023-02-11T16:13:29;10.18;;;5.25;;
33862;SDS011;20158;51.436;-2.742;2023-02-11T16:15:43;7.35;;;5.13;;
33862;SDS011;20158;51.436;-2.742;2023-02-11T16:18:29;7.50;;;5.28;;
33862;SDS011;20158;51.436;-2.742;2023-02-11T16:20:57;6.38;;;4.60;;
33862;SDS011;20158;51.436;-2.742;2023-02-11T16:23:24;8.18;;;4.68;;
33862;SDS011;20158;51.436;-2.742;2023-02-11T16:28:52;6.63;;;4.65;;
33862;SDS011;20158;51.436;-2.742;2023-02-11T16:31:31;5.82;;;4.22;;
33862;SDS011;20158;51.436;-2.742;2023-02-11T16:33:58;5.05;;;3.97;;
33862;SDS011;20158;51.436;-2.742;2023-02-11T16:36:24;6.75;;;4.38;;
33862;SDS011;20158;51.436;-2.742;2023-02-11T16:38:50;5.50;;;3.47;;
33862;SDS011;20158;51.436;-2.742;2023-02-11T16:41:16;4.57;;;3.72;;
33862;SDS011;20158;51.436;-2.742;2023-02-11T16:43:42;6.05;;;4.30;;
33862;SDS011;20158;51.436;-2.742;2023-02-11T16:46:09;5.45;;;3.78;;
33862;SDS011;20158;51.436;-2.742;2023-02-11T16:48:39;4.97;;;4.07;;
33862;SDS011;20158;51.436;-2.742;2023-02-11T16:51:05;5.65;;;3.53;;
33862;SDS011;20158;51.436;-2.742;2023-02-11T16:53:33;4.57;;;3.50;;
33862;SDS011;20158;51.436;-2.742;2023-02-11T16:55:59;4.65;;;3.30;;
33862;SDS011;20158;51.436;-2.742;2023-02-11T16:58:25;4.30;;;3.25;;
33862;SDS011;20158;51.436;-2.742;2023-02-11T17:00:51;6.90;;;3.90;;
33862;SDS011;20158;51.436;-2.742;2023-02-11T17:03:19;5.28;;;3.33;;
33862;SDS011;20158;51.436;-2.742;2023-02-11T17:05:47;4.95;;;3.63;;
33862;SDS011;20158;51.436;-2.742;2023-02-11T17:08:13;5.70;;;4.82;;
33862;SDS011;20158;51.436;-2.742;2023-02-11T17:10:39;6.03;;;3.80;;
33862;SDS011;20158;51.436;-2.742;2023-02-11T17:13:05;5.00;;;3.72;;
33862;SDS011;20158;51.436;-2.742;2023-02-11T17:15:31;4.25;;;3.72;;
33862;SDS011;20158;51.436;-2.742;2023-02-11T17:17:58;4.70;;;3.45;;
33862;SDS011;20158;51.436;-2.742;2023-02-11T17:20:23;5.18;;;3.33;;
33862;SDS011;20158;51.436;-2.742;2023-02-11T17:22:50;5.57;;;4.57;;
33862;SDS011;20158;51.436;-2.742;2023-02-11T17:25:16;6.55;;;4.82;;
33862;SDS011;20158;51.436;-2.742;2023-02-11T17:27:42;5.10;;;3.95;;
33862;SDS011;20158;51.436;-2.742;2023-02-11T17:30:09;5.10;;;3.40;;
33862;SDS011;20158;51.436;-2.742;2023-02-11T17:32:37;7.20;;;3.80;;
33862;SDS011;20158;51.436;-2.742;2023-02-11T17:35:03;7.68;;;3.90;;
33862;SDS011;20158;51.436;-2.742;2023-02-11T17:37:32;7.03;;;3.97;;
33862;SDS011;20158;51.436;-2.742;2023-02-11T17:39:58;7.38;;;4.03;;